Time;durP1;ratioP1;P1;durP2;ratioP2;P2;SDS_P1;SDS_P2;PMS_P1;PMS_P2;Temp;Humidity;BMP_temperature;BMP_pressure;BME280_temperature;BME280_humidity;BME280_pressure;Samples;Min_cycle;Max_cycle;Signal;HPM_P1;HPM_P2
2023/02/19 00:01:44;;;;;;;10.75;5.72;;;;;;;;;;4977857;28;20026;-68
2023/02/19 00:04:20;;;;;;;6.93;4.32;;;;;;;;;;4973202;28;20376;-68
2023/02/19 00:06:46;;;;;;;16.95;8.15;;;;;;;;;;4973224;28;20062;-69
2023/02/19 00:09:12;;;;;;;12.82;6.60;;;;;;;;;;4973367;28;20014;-68
2023/02/19 00:11:37;;;;;;;8.15;4.28;;;;;;;;;;4981713;28;20057;-69
2023/02/19 00:14:02;;;;;;;12.07;7.53;;;;;;;;;;4961039;28;20026;-69
2023/02/19 00:16:30;;;;;;;13.25;9.25;;;;;;;;;;4973029;28;20073;-69
2023/02/19 00:18:56;;;;;;;18.30;10.43;;;;;;;;;;4960943;28;21892;-69
2023/02/19 00:21:22;;;;;;;19.75;13.30;;;;;;;;;;4953211;28;20035;-69
2023/02/19 00:23:51;;;;;;;22.60;13.88;;;;;;;;;;4963423;28;20089;-69
2023/02/19 00:26:16;;;;;;;22.70;12.95;;;;;;;;;;4975060;28;20018;-69
2023/02/19 00:28:41;;;;;;;20.48;12.57;;;;;;;;;;4984759;28;20383;-69
2023/02/19 00:31:25;;;;;;;23.40;13.23;;;;;;;;;;4974603;28;20109;-69
2023/02/19 00:33:52;;;;;;;12.95;6.20;;;;;;;;;;4972673;28;20282;-69
2023/02/19 00:36:18;;;;;;;12.95;7.30;;;;;;;;;;4979535;28;20022;-69
2023/02/19 00:38:44;;;;;;;16.95;8.75;;;;;;;;;;4977912;28;20029;-69
2023/02/19 00:41:19;;;;;;;11.68;7.32;;;;;;;;;;4965042;28;20129;-69
2023/02/19 00:43:44;;;;;;;14.20;9.05;;;;;;;;;;4971281;28;20014;-69
2023/02/19 00:46:09;;;;;;;7.43;4.22;;;;;;;;;;4970904;28;20025;-68
2023/02/19 00:48:34;;;;;;;13.07;6.57;;;;;;;;;;4970560;28;20030;-68
2023/02/19 00:50:59;;;;;;;11.83;7.40;;;;;;;;;;4971065;28;20035;-68
2023/02/19 00:53:24;;;;;;;7.50;4.30;;;;;;;;;;4969844;28;20278;-69
2023/02/19 00:55:50;;;;;;;16.17;7.97;;;;;;;;;;4974433;28;20379;-69
2023/02/19 00:58:15;;;;;;;11.40;7.23;;;;;;;;;;4976222;28;20281;-69
2023/02/19 01:00:40;;;;;;;15.03;9.50;;;;;;;;;;4958528;28;20683;-69
2023/02/19 01:03:05;;;;;;;11.50;6.37;;;;;;;;;;4974953;28;20289;-69
2023/02/19 01:05:30;;;;;;;20.97;10.33;;;;;;;;;;4977145;28;20277;-69
2023/02/19 01:07:55;;;;;;;19.87;9.80;;;;;;;;;;4957405;28;20305;-69
2023/02/19 01:10:21;;;;;;;14.73;8.20;;;;;;;;;;4973038;28;20280;-69
2023/02/19 01:12:46;;;;;;;18.90;10.65;;;;;;;;;;4977933;28;20785;-69
2023/02/19 01:15:11;;;;;;;18.48;9.70;;;;;;;;;;4972820;28;20058;-69
2023/02/19 01:17:36;;;;;;;25.95;11.50;;;;;;;;;;4972104;28;20105;-69
2023/02/19 01:20:02;;;;;;;18.83;12.60;;;;;;;;;;4975318;28;20034;-69
2023/02/19 01:22:27;;;;;;;20.30;11.43;;;;;;;;;;4966026;28;20570;-69
2023/02/19 01:24:52;;;;;;;18.87;10.63;;;;;;;;;;4974616;28;20569;-69
2023/02/19 01:27:17;;;;;;;17.90;10.53;;;;;;;;;;4974234;28;20278;-69
2023/02/19 01:29:42;;;;;;;16.60;8.43;;;;;;;;;;4974985;28;20328;-69
2023/02/19 01:32:07;;;;;;;17.83;8.93;;;;;;;;;;4968172;28;20278;-69
2023/02/19 01:34:33;;;;;;;15.02;7.80;;;;;;;;;;4971882;28;20316;-69
2023/02/19 01:36:58;;;;;;;14.98;8.93;;;;;;;;;;4972430;28;20080;-69
2023/02/19 01:39:24;;;;;;;17.40;8.38;;;;;;;;;;4973740;28;20022;-69
2023/02/19 01:41:49;;;;;;;13.07;6.00;;;;;;;;;;4972287;28;20022;-69
2023/02/19 01:44:14;;;;;;;10.57;5.90;;;;;;;;;;4975431;28;20266;-69
2023/02/19 01:46:43;;;;;;;15.80;7.22;;;;;;;;;;4976802;28;20270;-69
2023/02/19 01:49:14;;;;;;;12.50;6.63;;;;;;;;;;4980795;28;20028;-69
2023/02/19 01:51:43;;;;;;;19.27;9.77;;;;;;;;;;4976692;28;20399;-69
2023/02/19 01:54:11;;;;;;;21.02;8.38;;;;;;;;;;4971288;28;20030;-69
2023/02/19 01:56:37;;;;;;;17.45;8.10;;;;;;;;;;4972690;28;20077;-69
2023/02/19 01:59:03;;;;;;;17.95;7.55;;;;;;;;;;4974560;28;20019;-69
2023/02/19 02:01:28;;;;;;;19.83;7.60;;;;;;;;;;4976052;28;20476;-69
2023/02/19 02:03:53;;;;;;;10.82;7.28;;;;;;;;;;4975668;28;20041;-69
2023/02/19 02:06:23;;;;;;;18.05;6.38;;;;;;;;;;4976795;28;20022;-69
2023/02/19 02:11:39;;;;;;;12.73;6.65;;;;;;;;;;4975497;28;20451;-70
2023/02/19 02:14:04;;;;;;;12.95;6.20;;;;;;;;;;4962712;28;20038;-69
2023/02/19 02:16:32;;;;;;;23.40;6.78;;;;;;;;;;4980612;28;20412;-69
2023/02/19 02:19:20;;;;;;;17.85;6.82;;;;;;;;;;4976961;28;20033;-69
2023/02/19 02:21:55;;;;;;;14.75;6.82;;;;;;;;;;4975092;28;20081;-69
2023/02/19 02:24:38;;;;;;;15.52;7.15;;;;;;;;;;4979170;28;20472;-69
2023/02/19 02:27:15;;;;;;;17.70;8.23;;;;;;;;;;4974635;28;20019;-69
2023/02/19 02:29:59;;;;;;;18.83;8.55;;;;;;;;;;4977689;28;20380;-69
2023/02/19 02:32:26;;;;;;;13.27;8.18;;;;;;;;;;4966716;28;20039;-69
2023/02/19 02:35:09;;;;;;;14.48;7.60;;;;;;;;;;4975546;28;20021;-69
2023/02/19 02:37:37;;;;;;;19.20;9.18;;;;;;;;;;4983142;28;20495;-69
2023/02/19 02:40:03;;;;;;;13.55;7.43;;;;;;;;;;4976250;28;20062;-69
2023/02/19 02:42:28;;;;;;;20.25;8.27;;;;;;;;;;4976343;28;20029;-69
2023/02/19 02:47:57;;;;;;;19.27;9.88;;;;;;;;;;4977867;28;20041;-69
2023/02/19 02:50:29;;;;;;;18.00;8.90;;;;;;;;;;4976609;28;20357;-69
2023/02/19 02:55:42;;;;;;;19.90;8.90;;;;;;;;;;4975498;28;20113;-69
2023/02/19 02:58:07;;;;;;;17.75;8.63;;;;;;;;;;4959982;28;22120;-69
2023/02/19 03:03:19;;;;;;;15.70;7.95;;;;;;;;;;4975649;28;20495;-69
2023/02/19 03:05:51;;;;;;;15.45;8.27;;;;;;;;;;4974500;28;20456;-69
2023/02/19 03:08:28;;;;;;;16.27;10.30;;;;;;;;;;4972446;28;20113;-69
2023/02/19 03:10:57;;;;;;;21.50;8.27;;;;;;;;;;4975303;28;20022;-69
2023/02/19 03:19:20;;;;;;;21.65;10.48;;;;;;;;;;4978923;28;20026;-69
2023/02/19 03:21:55;;;;;;;17.58;9.63;;;;;;;;;;4977426;28;20266;-69
2023/02/19 03:27:07;;;;;;;20.17;9.57;;;;;;;;;;4967795;28;20166;-69
2023/02/19 03:29:34;;;;;;;19.15;8.43;;;;;;;;;;4978278;28;20113;-69
2023/02/19 03:32:03;;;;;;;30.17;10.00;;;;;;;;;;4977053;28;20027;-69
2023/02/19 03:34:31;;;;;;;19.52;9.95;;;;;;;;;;4976574;28;20637;-69
2023/02/19 03:37:02;;;;;;;24.27;10.55;;;;;;;;;;4974381;28;20031;-69
2023/02/19 03:39:28;;;;;;;21.33;10.20;;;;;;;;;;4973800;28;20598;-69
2023/02/19 03:42:02;;;;;;;22.67;11.65;;;;;;;;;;4976223;28;20109;-69
2023/02/19 03:44:36;;;;;;;26.17;10.80;;;;;;;;;;4975580;28;20029;-69
2023/02/19 03:47:16;;;;;;;20.20;9.95;;;;;;;;;;4975743;28;20046;-69
2023/02/19 03:49:44;;;;;;;22.30;10.65;;;;;;;;;;4972944;28;20029;-69
2023/02/19 03:52:14;;;;;;;22.33;11.32;;;;;;;;;;4974713;28;20483;-69
2023/02/19 03:54:48;;;;;;;28.67;12.52;;;;;;;;;;4970412;28;20116;-69
2023/02/19 03:57:16;;;;;;;26.63;10.30;;;;;;;;;;4978218;28;20031;-69
2023/02/19 04:00:00;;;;;;;22.58;12.02;;;;;;;;;;4974742;28;20057;-69
2023/02/19 04:02:28;;;;;;;30.38;11.73;;;;;;;;;;4976145;28;20069;-69
2023/02/19 04:04:56;;;;;;;28.33;13.63;;;;;;;;;;4979226;28;20022;-69
2023/02/19 04:07:22;;;;;;;31.45;12.32;;;;;;;;;;4970366;28;20019;-69
2023/02/19 04:09:48;;;;;;;26.25;13.52;;;;;;;;;;4974534;28;20027;-69
2023/02/19 04:12:15;;;;;;;25.20;11.80;;;;;;;;;;4977304;28;20027;-69
2023/02/19 04:14:57;;;;;;;30.10;12.48;;;;;;;;;;4977722;28;20034;-69
2023/02/19 04:17:25;;;;;;;31.15;14.32;;;;;;;;;;4972093;28;20018;-69
2023/02/19 04:19:51;;;;;;;25.67;11.38;;;;;;;;;;4974017;28;20027;-69
2023/02/19 04:22:17;;;;;;;27.27;12.00;;;;;;;;;;4973969;28;20050;-69
2023/02/19 04:24:46;;;;;;;27.83;12.88;;;;;;;;;;4972413;28;20023;-69
2023/02/19 04:27:12;;;;;;;28.80;12.63;;;;;;;;;;4974309;28;20030;-69
2023/02/19 04:29:37;;;;;;;27.70;12.18;;;;;;;;;;4975725;28;20026;-69
2023/02/19 04:32:02;;;;;;;34.55;13.63;;;;;;;;;;4974240;28;20027;-69
2023/02/19 04:34:27;;;;;;;30.63;11.55;;;;;;;;;;4972143;28;20033;-69
2023/02/19 04:36:52;;;;;;;27.70;12.17;;;;;;;;;;4970413;28;20084;-69
2023/02/19 04:39:18;;;;;;;30.20;12.53;;;;;;;;;;4973654;28;20377;-69
2023/02/19 04:41:43;;;;;;;30.92;14.23;;;;;;;;;;4975227;28;20343;-69
2023/02/19 04:44:08;;;;;;;26.53;13.93;;;;;;;;;;4975434;28;20030;-69
2023/02/19 04:46:33;;;;;;;33.47;14.15;;;;;;;;;;4974404;28;20657;-69
2023/02/19 04:48:58;;;;;;;35.27;12.50;;;;;;;;;;4972481;28;20368;-69
2023/02/19 04:51:24;;;;;;;35.63;13.30;;;;;;;;;;4976944;28;20320;-69
2023/02/19 04:53:49;;;;;;;32.08;14.90;;;;;;;;;;4969804;28;20277;-69
2023/02/19 04:56:15;;;;;;;35.80;16.83;;;;;;;;;;4978281;28;20101;-69
2023/02/19 04:58:41;;;;;;;35.42;14.00;;;;;;;;;;4972872;28;20539;-69
2023/02/19 05:01:06;;;;;;;31.20;15.00;;;;;;;;;;4969210;28;20027;-69
2023/02/19 05:03:34;;;;;;;33.90;15.23;;;;;;;;;;4974212;28;20117;-69
2023/02/19 05:06:03;;;;;;;33.92;15.32;;;;;;;;;;4974244;28;20018;-69
2023/02/19 05:08:28;;;;;;;33.90;15.97;;;;;;;;;;4977318;28;20033;-69
2023/02/19 05:10:56;;;;;;;31.67;14.35;;;;;;;;;;4980084;28;20102;-69
2023/02/19 05:13:21;;;;;;;30.92;13.68;;;;;;;;;;4976351;28;20023;-69
2023/02/19 05:15:57;;;;;;;30.02;14.10;;;;;;;;;;4973954;28;20042;-69
2023/02/19 05:18:22;;;;;;;38.97;15.73;;;;;;;;;;4974006;28;20049;-69
2023/02/19 05:20:47;;;;;;;37.33;14.35;;;;;;;;;;4974685;28;20034;-69
2023/02/19 05:23:12;;;;;;;26.47;12.83;;;;;;;;;;4978211;28;20035;-68
2023/02/19 05:25:37;;;;;;;29.60;14.23;;;;;;;;;;4976717;28;20328;-69
2023/02/19 05:28:18;;;;;;;31.33;12.97;;;;;;;;;;4980166;28;20026;-68
2023/02/19 05:30:43;;;;;;;;;;;;;;;;;;4976140;28;20269;-69
2023/02/19 05:33:08;;;;;;;30.95;16.42;;;;;;;;;;4975922;28;19940;-68
2023/02/19 05:35:38;;;;;;;29.70;15.65;;;;;;;;;;4972782;28;20332;-68
2023/02/19 05:38:04;;;;;;;41.17;14.82;;;;;;;;;;4972759;28;20031;-68
2023/02/19 05:40:29;;;;;;;31.45;14.40;;;;;;;;;;4977979;28;20502;-69
2023/02/19 05:42:55;;;;;;;37.47;15.35;;;;;;;;;;4977025;28;20098;-69
2023/02/19 05:45:20;;;;;;;31.90;13.50;;;;;;;;;;4979837;28;20109;-69
2023/02/19 05:47:45;;;;;;;37.43;15.13;;;;;;;;;;4976586;28;20278;-68
2023/02/19 05:50:10;;;;;;;45.97;15.67;;;;;;;;;;4976668;28;20269;-68
2023/02/19 05:52:35;;;;;;;42.20;17.23;;;;;;;;;;4984360;28;20308;-68
2023/02/19 05:55:00;;;;;;;38.55;20.92;;;;;;;;;;4975287;28;20041;-68
2023/02/19 05:57:26;;;;;;;41.43;18.50;;;;;;;;;;4983040;28;20030;-69
2023/02/19 05:59:51;;;;;;;31.98;16.52;;;;;;;;;;4976031;28;20274;-69
2023/02/19 06:02:16;;;;;;;38.60;19.87;;;;;;;;;;4976308;28;20031;-68
2023/02/19 06:04:41;;;;;;;36.80;16.37;;;;;;;;;;4977951;28;20360;-69
2023/02/19 06:07:06;;;;;;;32.38;15.60;;;;;;;;;;4975526;28;20278;-69
2023/02/19 06:09:32;;;;;;;32.53;14.80;;;;;;;;;;4982111;28;20072;-69
2023/02/19 06:11:57;;;;;;;35.47;17.37;;;;;;;;;;4980890;28;20041;-69
2023/02/19 06:14:22;;;;;;;36.10;17.07;;;;;;;;;;4980731;28;20266;-68
2023/02/19 06:16:47;;;;;;;35.67;16.08;;;;;;;;;;4975294;28;20301;-69
2023/02/19 06:19:12;;;;;;;37.53;16.70;;;;;;;;;;4977205;28;20027;-69
2023/02/19 06:21:38;;;;;;;37.20;18.77;;;;;;;;;;4985662;28;20042;-69
2023/02/19 06:24:04;;;;;;;43.83;17.25;;;;;;;;;;4969147;28;20266;-69
2023/02/19 06:26:29;;;;;;;37.75;15.82;;;;;;;;;;4978371;28;20022;-69
2023/02/19 06:28:54;;;;;;;27.13;14.53;;;;;;;;;;4975296;28;20392;-69
2023/02/19 06:31:20;;;;;;;41.17;14.93;;;;;;;;;;4959893;28;20270;-69
2023/02/19 06:33:45;;;;;;;34.20;16.02;;;;;;;;;;4974864;28;20611;-69
2023/02/19 06:36:12;;;;;;;32.88;16.52;;;;;;;;;;4977117;28;20034;-69
2023/02/19 06:38:37;;;;;;;36.40;16.38;;;;;;;;;;4972727;28;20049;-69
2023/02/19 06:41:04;;;;;;;29.60;14.60;;;;;;;;;;4973403;28;20019;-69
2023/02/19 06:43:30;;;;;;;33.20;17.73;;;;;;;;;;4974558;28;20278;-69
2023/02/19 06:45:57;;;;;;;30.67;14.30;;;;;;;;;;4970835;28;22134;-69
2023/02/19 06:48:22;;;;;;;33.58;14.43;;;;;;;;;;4950998;28;20023;-69
2023/02/19 06:50:47;;;;;;;34.20;16.27;;;;;;;;;;4952809;28;20051;-68
2023/02/19 06:53:13;;;;;;;36.08;16.45;;;;;;;;;;4949513;28;20041;-68
2023/02/19 06:55:39;;;;;;;34.40;16.90;;;;;;;;;;4967287;28;20125;-69
2023/02/19 06:58:04;;;;;;;31.33;15.18;;;;;;;;;;4969885;28;20449;-69
2023/02/19 07:00:30;;;;;;;34.35;13.82;;;;;;;;;;4976268;28;20027;-69
2023/02/19 07:02:55;;;;;;;41.78;16.55;;;;;;;;;;4978263;28;20480;-69
2023/02/19 07:05:21;;;;;;;40.47;14.57;;;;;;;;;;4974910;28;20019;-69
2023/02/19 07:07:46;;;;;;;36.28;16.70;;;;;;;;;;4977284;28;20030;-69
2023/02/19 07:10:11;;;;;;;41.47;17.13;;;;;;;;;;4978703;28;20031;-69
2023/02/19 07:12:36;;;;;;;38.00;13.30;;;;;;;;;;4972947;28;20360;-69
2023/02/19 07:15:02;;;;;;;34.42;13.35;;;;;;;;;;4971077;28;20278;-69
2023/02/19 07:17:27;;;;;;;32.05;13.55;;;;;;;;;;4971042;28;20023;-69
2023/02/19 07:19:52;;;;;;;28.08;15.07;;;;;;;;;;4971804;28;20479;-69
2023/02/19 07:22:17;;;;;;;32.67;13.70;;;;;;;;;;4973684;28;20438;-69
2023/02/19 07:24:42;;;;;;;28.90;14.90;;;;;;;;;;4975513;28;20274;-69
2023/02/19 07:27:08;;;;;;;31.08;16.52;;;;;;;;;;4978727;28;20115;-69
2023/02/19 07:29:33;;;;;;;33.03;12.57;;;;;;;;;;4982222;28;20085;-69
2023/02/19 07:31:58;;;;;;;35.60;12.47;;;;;;;;;;4970524;28;20300;-69
2023/02/19 07:34:23;;;;;;;29.10;11.93;;;;;;;;;;4980537;28;20286;-69
2023/02/19 07:36:48;;;;;;;34.47;14.68;;;;;;;;;;4980375;28;20305;-69
2023/02/19 07:39:14;;;;;;;42.03;14.20;;;;;;;;;;4978077;28;20576;-69
2023/02/19 07:41:39;;;;;;;29.70;12.13;;;;;;;;;;4981302;28;20384;-69
2023/02/19 07:44:05;;;;;;;26.15;11.35;;;;;;;;;;4978896;28;20509;-69
2023/02/19 07:46:30;;;;;;;29.48;11.98;;;;;;;;;;4976973;28;20019;-69
2023/02/19 07:48:56;;;;;;;33.85;11.60;;;;;;;;;;4961841;28;20057;-69
2023/02/19 07:51:21;;;;;;;25.90;12.45;;;;;;;;;;4979213;28;20472;-69
2023/02/19 07:53:49;;;;;;;32.67;13.93;;;;;;;;;;4981837;28;20038;-69
2023/02/19 07:56:14;;;;;;;35.58;13.05;;;;;;;;;;4979352;28;20420;-69
2023/02/19 07:58:39;;;;;;;35.63;13.18;;;;;;;;;;4976214;28;20035;-69
2023/02/19 08:01:06;;;;;;;30.45;11.23;;;;;;;;;;4976206;28;20031;-69
2023/02/19 08:03:31;;;;;;;28.60;10.38;;;;;;;;;;4980943;28;20081;-69
2023/02/19 08:05:56;;;;;;;30.53;11.53;;;;;;;;;;4979070;28;20479;-69
2023/02/19 08:08:21;;;;;;;28.13;10.45;;;;;;;;;;4980672;28;20328;-69
2023/02/19 08:13:30;;;;;;;25.75;10.70;;;;;;;;;;4976034;28;20325;-69
2023/02/19 08:16:01;;;;;;;32.55;10.93;;;;;;;;;;4973241;28;20054;-69
2023/02/19 08:18:28;;;;;;;31.65;10.77;;;;;;;;;;4980563;28;20019;-69
2023/02/19 08:20:53;;;;;;;30.50;10.00;;;;;;;;;;4979181;28;20030;-68
2023/02/19 08:23:22;;;;;;;31.38;9.57;;;;;;;;;;4962377;28;20041;-69
2023/02/19 08:25:47;;;;;;;42.92;10.70;;;;;;;;;;4978059;28;20069;-69
2023/02/19 08:28:13;;;;;;;32.17;10.50;;;;;;;;;;4976719;28;20022;-69
2023/02/19 08:30:39;;;;;;;27.10;11.77;;;;;;;;;;4978320;28;22000;-69
2023/02/19 08:33:05;;;;;;;33.78;11.20;;;;;;;;;;4972512;28;20120;-69
2023/02/19 08:35:30;;;;;;;32.33;11.50;;;;;;;;;;4972755;28;20035;-69
2023/02/19 08:37:57;;;;;;;27.58;10.38;;;;;;;;;;4979442;28;20038;-69
2023/02/19 08:40:22;;;;;;;31.52;9.45;;;;;;;;;;4981237;28;20477;-69
2023/02/19 08:42:48;;;;;;;26.70;11.77;;;;;;;;;;4979521;28;20042;-69
2023/02/19 08:45:13;;;;;;;27.23;9.90;;;;;;;;;;4976854;28;20408;-69
2023/02/19 08:47:38;;;;;;;21.48;9.85;;;;;;;;;;4981375;28;20276;-69
2023/02/19 08:50:04;;;;;;;35.00;9.68;;;;;;;;;;4977686;28;20094;-69
2023/02/19 08:52:29;;;;;;;29.23;11.40;;;;;;;;;;4980532;28;20107;-69
2023/02/19 08:54:55;;;;;;;28.35;12.70;;;;;;;;;;4977855;28;20110;-69
2023/02/19 08:57:20;;;;;;;30.35;9.90;;;;;;;;;;4971066;28;20035;-69
2023/02/19 08:59:45;;;;;;;30.50;10.85;;;;;;;;;;4976683;28;20093;-69
2023/02/19 09:02:11;;;;;;;39.87;11.47;;;;;;;;;;4975535;28;20034;-69
2023/02/19 09:04:37;;;;;;;28.15;10.88;;;;;;;;;;4976581;28;20270;-70
2023/02/19 09:07:06;;;;;;;35.90;12.68;;;;;;;;;;4977894;28;20766;-69
2023/02/19 09:09:31;;;;;;;22.88;9.77;;;;;;;;;;4976710;28;20065;-69
2023/02/19 09:11:56;;;;;;;29.15;10.32;;;;;;;;;;4971557;28;20034;-69
2023/02/19 09:14:21;;;;;;;32.07;9.47;;;;;;;;;;4977377;28;20468;-69
2023/02/19 09:16:47;;;;;;;28.35;8.30;;;;;;;;;;4971069;28;20281;-69
2023/02/19 09:19:12;;;;;;;31.40;8.43;;;;;;;;;;4977753;28;20077;-69
2023/02/19 09:21:37;;;;;;;30.50;10.18;;;;;;;;;;4977742;28;20290;-69
2023/02/19 09:24:02;;;;;;;31.07;9.97;;;;;;;;;;4969586;28;20027;-69
2023/02/19 09:26:28;;;;;;;22.55;10.07;;;;;;;;;;4967583;28;20432;-69
2023/02/19 09:28:53;;;;;;;20.40;9.05;;;;;;;;;;4970146;28;20039;-69
2023/02/19 09:31:18;;;;;;;26.98;9.05;;;;;;;;;;4972842;28;20034;-69
2023/02/19 09:33:44;;;;;;;32.13;10.48;;;;;;;;;;4970169;28;20026;-69
2023/02/19 09:36:09;;;;;;;30.90;9.35;;;;;;;;;;4967383;28;20053;-69
2023/02/19 09:38:34;;;;;;;29.25;10.52;;;;;;;;;;4973496;28;20085;-70
2023/02/19 09:41:05;;;;;;;30.05;10.10;;;;;;;;;;4971154;28;20027;-69
2023/02/19 09:43:30;;;;;;;31.23;9.32;;;;;;;;;;4976536;28;20046;-70
2023/02/19 09:46:01;;;;;;;22.45;8.25;;;;;;;;;;4969303;28;20046;-69
2023/02/19 09:48:26;;;;;;;;;;;;;;;;;;4973924;28;20373;-68
2023/02/19 09:50:51;;;;;;;24.35;7.72;;;;;;;;;;4975164;28;20081;-70
2023/02/19 09:53:22;;;;;;;20.88;7.80;;;;;;;;;;4968610;28;20023;-70
2023/02/19 09:55:47;;;;;;;18.92;7.43;;;;;;;;;;4972762;28;20522;-69
2023/02/19 09:58:15;;;;;;;24.10;7.88;;;;;;;;;;4968073;28;20067;-69
2023/02/19 10:00:41;;;;;;;29.42;7.95;;;;;;;;;;4966836;28;20033;-69
2023/02/19 10:03:11;;;;;;;19.88;7.45;;;;;;;;;;4965288;28;20026;-69
2023/02/19 10:05:37;;;;;;;24.45;6.88;;;;;;;;;;4971133;28;20029;-69
2023/02/19 10:08:04;;;;;;;25.15;7.18;;;;;;;;;;4971055;28;20038;-69
2023/02/19 10:10:30;;;;;;;20.73;6.10;;;;;;;;;;4977929;28;20549;-69
2023/02/19 10:13:01;;;;;;;14.30;5.60;;;;;;;;;;4972060;28;20023;-69
2023/02/19 10:15:35;;;;;;;24.17;6.80;;;;;;;;;;4976795;28;20035;-69
2023/02/19 10:18:01;;;;;;;15.23;5.78;;;;;;;;;;4977015;28;20551;-69
2023/02/19 10:20:27;;;;;;;19.55;6.13;;;;;;;;;;4973014;28;20039;-69
2023/02/19 10:23:02;;;;;;;21.45;5.15;;;;;;;;;;4976240;28;20038;-69
2023/02/19 10:25:28;;;;;;;20.75;5.68;;;;;;;;;;4975040;28;20034;-69
2023/02/19 10:27:56;;;;;;;12.27;4.88;;;;;;;;;;4972441;28;20464;-69
2023/02/19 10:30:27;;;;;;;12.73;5.82;;;;;;;;;;4972642;28;20042;-69
2023/02/19 10:33:09;;;;;;;18.58;5.35;;;;;;;;;;4971712;28;20173;-69
2023/02/19 10:35:36;;;;;;;29.02;6.90;;;;;;;;;;4959376;28;20026;-69
2023/02/19 10:38:05;;;;;;;22.55;6.68;;;;;;;;;;4971733;28;20563;-69
2023/02/19 10:40:31;;;;;;;13.43;6.75;;;;;;;;;;4971117;28;20046;-69
2023/02/19 10:43:00;;;;;;;13.05;5.95;;;;;;;;;;4981115;28;20026;-69
2023/02/19 10:45:32;;;;;;;22.15;7.57;;;;;;;;;;4976412;28;20034;-69
2023/02/19 10:47:58;;;;;;;23.90;6.50;;;;;;;;;;4972837;28;20030;-69
2023/02/19 10:50:23;;;;;;;14.00;6.25;;;;;;;;;;4976310;28;20023;-69
2023/02/19 10:52:56;;;;;;;16.10;6.20;;;;;;;;;;4981367;28;20030;-69
2023/02/19 10:55:21;;;;;;;18.70;6.45;;;;;;;;;;4979192;28;20381;-69
2023/02/19 10:57:49;;;;;;;25.58;6.95;;;;;;;;;;4972036;28;20137;-69
2023/02/19 11:00:14;;;;;;;17.45;5.63;;;;;;;;;;4975465;28;20030;-69
2023/02/19 11:02:40;;;;;;;22.65;6.47;;;;;;;;;;4980667;28;20026;-69
2023/02/19 11:05:08;;;;;;;17.02;6.65;;;;;;;;;;4972290;28;20050;-69
2023/02/19 11:07:37;;;;;;;17.20;7.80;;;;;;;;;;4976940;28;20019;-69
2023/02/19 11:10:03;;;;;;;17.38;7.13;;;;;;;;;;4979306;28;20019;-69
2023/02/19 11:12:32;;;;;;;20.92;7.50;;;;;;;;;;4977703;28;20454;-69
2023/02/19 11:15:11;;;;;;;19.70;8.00;;;;;;;;;;4977902;28;20030;-69
2023/02/19 11:17:37;;;;;;;16.75;7.25;;;;;;;;;;4977779;28;20596;-69
2023/02/19 11:20:05;;;;;;;18.35;7.55;;;;;;;;;;4978073;28;20077;-69
2023/02/19 11:22:32;;;;;;;29.75;8.38;;;;;;;;;;4980760;28;20039;-69
2023/02/19 11:25:01;;;;;;;15.40;7.13;;;;;;;;;;4976540;28;20029;-69
2023/02/19 11:27:27;;;;;;;24.57;7.73;;;;;;;;;;4976658;28;20477;-69
2023/02/19 11:29:52;;;;;;;22.50;8.90;;;;;;;;;;4975934;28;20041;-69
2023/02/19 11:32:26;;;;;;;13.27;7.25;;;;;;;;;;4980286;28;20018;-69
2023/02/19 11:34:51;;;;;;;17.60;7.28;;;;;;;;;;4978422;28;20022;-69
2023/02/19 11:37:18;;;;;;;17.40;8.23;;;;;;;;;;4980248;28;20029;-69
2023/02/19 11:39:45;;;;;;;16.63;6.78;;;;;;;;;;4977306;28;20041;-69
2023/02/19 11:42:25;;;;;;;14.02;6.22;;;;;;;;;;4976422;28;20086;-69
2023/02/19 11:44:50;;;;;;;;;;;;;;;;;;4976474;28;20022;-69
2023/02/19 11:47:25;;;;;;;13.18;6.70;;;;;;;;;;4978837;28;19909;-69
2023/02/19 11:49:57;;;;;;;13.15;5.47;;;;;;;;;;4978948;28;20025;-69
2023/02/19 11:52:22;;;;;;;16.92;5.68;;;;;;;;;;4959545;28;20027;-69
2023/02/19 11:54:53;;;;;;;14.27;5.78;;;;;;;;;;4976451;28;20026;-69
2023/02/19 11:57:29;;;;;;;21.38;5.97;;;;;;;;;;4971788;28;20030;-69
2023/02/19 12:00:18;;;;;;;10.75;5.40;;;;;;;;;;4977929;28;20026;-69
2023/02/19 12:02:53;;;;;;;10.30;5.13;;;;;;;;;;4966050;28;20061;-69
2023/02/19 12:05:22;;;;;;;13.95;5.95;;;;;;;;;;4972081;28;20030;-70
2023/02/19 12:07:47;;;;;;;17.90;7.22;;;;;;;;;;4978351;28;20014;-69
2023/02/19 12:10:34;;;;;;;11.60;5.20;;;;;;;;;;4973835;28;20076;-69
2023/02/19 12:13:18;;;;;;;15.45;6.47;;;;;;;;;;4972719;28;20290;-69
2023/02/19 12:16:02;;;;;;;10.40;5.85;;;;;;;;;;4967478;28;20054;-69
2023/02/19 12:18:47;;;;;;;13.95;7.70;;;;;;;;;;4973117;28;20073;-69
2023/02/19 12:21:12;;;;;;;16.75;6.90;;;;;;;;;;4974459;28;20039;-69
2023/02/19 12:23:46;;;;;;;14.40;6.22;;;;;;;;;;4968842;28;20930;-69
2023/02/19 12:26:21;;;;;;;16.77;7.18;;;;;;;;;;4977256;28;20061;-69
2023/02/19 12:28:49;;;;;;;14.43;6.40;;;;;;;;;;4973210;28;20065;-68
2023/02/19 12:31:33;;;;;;;10.10;5.22;;;;;;;;;;4972481;28;20090;-68
2023/02/19 12:33:59;;;;;;;12.63;5.40;;;;;;;;;;4976043;28;20023;-69
2023/02/19 12:36:24;;;;;;;14.45;5.55;;;;;;;;;;4969669;28;20041;-68
2023/02/19 12:38:56;;;;;;;15.25;6.85;;;;;;;;;;4973114;28;20026;-69
2023/02/19 12:41:24;;;;;;;11.27;5.00;;;;;;;;;;4975004;28;20030;-68
2023/02/19 12:43:59;;;;;;;12.88;4.72;;;;;;;;;;4975313;28;20014;-68
2023/02/19 12:46:30;;;;;;;10.63;5.35;;;;;;;;;;4975516;28;20035;-68
2023/02/19 12:49:04;;;;;;;14.27;5.35;;;;;;;;;;4974194;28;20085;-69
2023/02/19 12:51:38;;;;;;;15.05;5.57;;;;;;;;;;4977219;28;20023;-69
2023/02/19 12:54:11;;;;;;;21.23;6.10;;;;;;;;;;4977317;28;20034;-68
2023/02/19 12:56:39;;;;;;;14.88;5.10;;;;;;;;;;4976789;28;20088;-68
2023/02/19 12:59:12;;;;;;;8.73;4.60;;;;;;;;;;4971086;28;20026;-68
2023/02/19 13:01:40;;;;;;;13.48;5.80;;;;;;;;;;4979059;28;20058;-68
2023/02/19 13:04:08;;;;;;;15.93;5.40;;;;;;;;;;4974648;28;20011;-68
2023/02/19 13:06:40;;;;;;;12.95;5.47;;;;;;;;;;4974452;28;20103;-69
2023/02/19 13:09:08;;;;;;;8.73;4.35;;;;;;;;;;4973677;28;20033;-68
2023/02/19 13:11:40;;;;;;;13.02;4.78;;;;;;;;;;4976783;28;20014;-68
2023/02/19 13:14:16;;;;;;;9.10;4.63;;;;;;;;;;4972945;28;20022;-68
2023/02/19 13:16:43;;;;;;;12.82;4.30;;;;;;;;;;4968407;28;20049;-68
2023/02/19 13:19:10;;;;;;;9.77;4.00;;;;;;;;;;4969149;28;20019;-69
2023/02/19 13:24:31;;;;;;;13.18;3.95;;;;;;;;;;4970168;28;20099;-69
2023/02/19 13:27:16;;;;;;;10.93;3.30;;;;;;;;;;4956754;28;20069;-69
2023/02/19 13:29:47;;;;;;;12.95;3.40;;;;;;;;;;4974510;28;20093;-68
2023/02/19 13:32:30;;;;;;;9.90;2.78;;;;;;;;;;4973251;28;20026;-69
2023/02/19 13:35:14;;;;;;;10.55;3.08;;;;;;;;;;4968467;28;20455;-68
2023/02/19 13:37:39;;;;;;;11.30;3.35;;;;;;;;;;4970349;28;20042;-68
2023/02/19 13:40:16;;;;;;;9.75;3.30;;;;;;;;;;4971348;28;20035;-68
2023/02/19 13:42:41;;;;;;;14.30;4.60;;;;;;;;;;4981273;28;20113;-69
2023/02/19 13:45:06;;;;;;;10.35;4.00;;;;;;;;;;4981408;28;20101;-68
2023/02/19 13:47:50;;;;;;;10.95;4.00;;;;;;;;;;4976946;28;20019;-68
2023/02/19 13:50:17;;;;;;;7.70;3.88;;;;;;;;;;4977878;28;20098;-69
2023/02/19 13:52:42;;;;;;;8.52;3.22;;;;;;;;;;4978870;28;20037;-68
2023/02/19 13:55:26;;;;;;;9.45;3.78;;;;;;;;;;4979103;28;20106;-69
2023/02/19 13:57:51;;;;;;;9.02;3.75;;;;;;;;;;4974083;28;20427;-69
2023/02/19 14:00:36;;;;;;;13.80;2.47;;;;;;;;;;4980533;28;20106;-68
2023/02/19 14:03:20;;;;;;;9.85;3.70;;;;;;;;;;4970801;28;20371;-68
2023/02/19 14:05:56;;;;;;;10.25;3.22;;;;;;;;;;4975750;28;20088;-68
2023/02/19 14:08:40;;;;;;;9.32;2.97;;;;;;;;;;4975483;28;20476;-69
2023/02/19 14:11:07;;;;;;;8.95;3.60;;;;;;;;;;4979902;28;20472;-69
2023/02/19 14:13:50;;;;;;;13.23;5.72;;;;;;;;;;4971875;28;20423;-68
2023/02/19 14:16:29;;;;;;;10.75;4.75;;;;;;;;;;4971631;28;20106;-68
2023/02/19 14:18:55;;;;;;;8.18;4.18;;;;;;;;;;4970097;28;20050;-68
2023/02/19 14:21:24;;;;;;;15.88;5.25;;;;;;;;;;4971553;28;20416;-68
2023/02/19 14:23:51;;;;;;;12.85;6.07;;;;;;;;;;4955607;28;20396;-68
2023/02/19 14:26:17;;;;;;;14.52;5.68;;;;;;;;;;4968980;28;20029;-68
2023/02/19 14:28:43;;;;;;;14.00;5.35;;;;;;;;;;4971361;28;20101;-68
2023/02/19 14:31:18;;;;;;;14.13;6.28;;;;;;;;;;4970829;28;20030;-68
2023/02/19 14:33:48;;;;;;;14.90;6.18;;;;;;;;;;4973616;28;20829;-68
2023/02/19 14:36:13;;;;;;;10.02;5.50;;;;;;;;;;4969483;28;20029;-68
2023/02/19 14:38:44;;;;;;;9.10;4.88;;;;;;;;;;4970250;28;20035;-68
2023/02/19 14:41:10;;;;;;;13.70;6.80;;;;;;;;;;4972129;28;20274;-68
2023/02/19 14:43:36;;;;;;;21.48;7.65;;;;;;;;;;4971692;28;20031;-68
2023/02/19 14:46:21;;;;;;;14.85;7.40;;;;;;;;;;4971551;28;20025;-68
2023/02/19 14:48:48;;;;;;;13.90;5.50;;;;;;;;;;4948978;28;20067;-67
2023/02/19 14:51:15;;;;;;;11.23;4.88;;;;;;;;;;4972588;28;20026;-68
2023/02/19 14:53:42;;;;;;;6.60;4.00;;;;;;;;;;4972694;28;20153;-71
2023/02/19 14:56:17;;;;;;;8.07;4.38;;;;;;;;;;4971439;28;20069;-67
2023/02/19 14:58:42;;;;;;;11.02;6.35;;;;;;;;;;4973011;28;20468;-68